Time;durP1;ratioP1;P1;durP2;ratioP2;P2;SDS_P1;SDS_P2;PMS_P1;PMS_P2;Temp;Humidity;BMP_temperature;BMP_pressure;BME280_temperature;BME280_humidity;BME280_pressure;Samples;Min_cycle;Max_cycle;Signal;HPM_P1;HPM_P2
2021/12/31 00:00:14;;;;;;;;;20.25;18.00;;;;;10.75;100.00;101881.59;4959343;28;45380;-82
2021/12/31 00:02:40;;;;;;;;;51.33;41.33;;;;;10.72;100.00;101877.28;4977041;28;45418;-82
2021/12/31 00:05:06;;;;;;;;;31.00;28.00;;;;;10.71;100.00;101880.88;4976693;28;45228;-82
2021/12/31 00:07:32;;;;;;;;;9.75;7.75;;;;;10.70;100.00;101880.97;4976469;28;44779;-81
2021/12/31 00:10:00;;;;;;;;;14.00;14.00;;;;;10.68;100.00;101872.19;4980330;28;44759;-81
2021/12/31 00:12:29;;;;;;;;;19.25;17.50;;;;;10.69;100.00;101873.94;4983957;28;45342;-82
2021/12/31 00:14:55;;;;;;;;;21.00;21.00;;;;;10.67;100.00;101873.13;4981389;28;45439;-79
2021/12/31 00:17:21;;;;;;;;;25.00;21.00;;;;;10.63;100.00;101867.09;4976211;28;44861;-81
2021/12/31 00:19:47;;;;;;;;;20.75;20.75;;;;;10.63;100.00;101872.41;4976832;28;45509;-81
2021/12/31 00:24:53;;;;;;;;;16.50;15.25;;;;;10.59;100.00;101862.88;4976528;28;45167;-81
2021/12/31 00:27:19;;;;;;;;;24.50;20.75;;;;;10.58;100.00;101858.47;4958233;28;45247;-81
2021/12/31 00:29:44;;;;;;;;;22.75;21.25;;;;;10.57;100.00;101853.25;4976267;28;45055;-81
2021/12/31 00:32:09;;;;;;;;;26.00;21.50;;;;;10.54;100.00;101847.16;4976628;28;44919;-82
2021/12/31 00:34:35;;;;;;;;;18.75;18.75;;;;;10.52;100.00;101854.34;4976560;28;45773;-81
2021/12/31 00:37:00;;;;;;;;;19.75;18.50;;;;;10.47;100.00;101850.19;4975730;28;45410;-82
2021/12/31 00:39:26;;;;;;;;;21.25;18.50;;;;;10.43;100.00;101844.16;4976508;28;44914;-81
2021/12/31 00:41:51;;;;;;;;;46.33;38.00;;;;;10.39;100.00;101837.25;4976334;28;44757;-82
2021/12/31 00:44:17;;;;;;;;;58.33;43.33;;;;;10.37;100.00;101841.81;4976195;28;45039;-81
2021/12/31 00:46:42;;;;;;;;;29.50;29.50;;;;;10.34;100.00;101846.41;4976311;28;45472;-81
2021/12/31 00:49:07;;;;;;;;;25.25;22.50;;;;;10.33;100.00;101855.31;4957938;28;45570;-81
2021/12/31 00:51:33;;;;;;;;;30.00;20.50;;;;;10.30;100.00;101853.66;4976072;28;44978;-81
2021/12/31 00:53:59;;;;;;;;;22.75;22.00;;;;;10.28;100.00;101859.03;4976149;28;45488;-81
2021/12/31 00:56:25;;;;;;;;;7.50;6.25;;;;;10.26;100.00;101850.28;4976252;28;45385;-82
2021/12/31 00:58:50;;;;;;;;;23.50;20.75;;;;;10.25;100.00;101850.34;4976450;28;45634;-81
2021/12/31 01:01:19;;;;;;;;;19.50;17.25;;;;;10.23;100.00;101854.84;4976207;28;45298;-83
2021/12/31 01:03:45;;;;;;;;;26.75;21.00;;;;;10.20;100.00;101853.22;4976205;28;45004;-83
2021/12/31 01:06:11;;;;;;;;;25.50;22.50;;;;;10.20;100.00;101857.63;4958204;28;45388;-83
2021/12/31 01:08:36;;;;;;;;;27.00;22.50;;;;;10.20;100.00;101860.28;4976855;28;45298;-83
2021/12/31 01:11:02;;;;;;;;;24.25;23.00;;;;;10.20;100.00;101857.63;4966495;28;45083;-82
2021/12/31 01:13:35;;;;;;;;;23.00;19.75;;;;;10.18;100.00;101851.56;4986788;28;45160;-81
2021/12/31 01:16:02;;;;;;;;;21.00;21.00;;;;;10.16;100.00;101848.97;4981456;28;44811;-82
2021/12/31 01:21:18;;;;;;;;;26.25;18.00;;;;;10.09;100.00;101834.25;4922413;28;44852;-82
2021/12/31 01:23:43;;;;;;;;;26.75;22.00;;;;;10.06;100.00;101826.44;4926911;28;45201;-81
2021/12/31 01:26:09;;;;;;;;;18.75;17.50;;;;;10.04;100.00;101818.53;4931212;28;44770;-80
2021/12/31 01:28:36;;;;;;;;;21.25;20.25;;;;;10.04;100.00;101823.84;4925517;28;44782;-81
2021/12/31 01:31:02;;;;;;;;;19.00;19.00;;;;;10.06;100.00;101829.09;4902984;28;45385;-82
2021/12/31 01:33:27;;;;;;;;;23.25;18.00;;;;;10.07;100.00;101822.00;4918896;28;45368;-82
2021/12/31 01:35:52;;;;;;;;;22.50;17.75;;;;;10.08;100.00;101824.56;4918536;28;44783;-81
2021/12/31 01:38:18;;;;;;;;;16.75;15.50;;;;;10.10;100.00;101827.16;4902743;28;44830;-80
2021/12/31 01:40:44;;;;;;;;;15.75;14.50;;;;;10.09;100.00;101818.31;4919162;28;45445;-81
2021/12/31 01:43:11;;;;;;;;;15.25;12.50;;;;;10.09;100.00;101818.31;4918355;28;45174;-80
2021/12/31 01:45:44;;;;;;;;;22.60;18.60;;;;;10.09;100.00;101820.13;4918661;28;45391;-81
2021/12/31 01:48:22;;;;;;;;;16.20;14.00;;;;;10.08;100.00;101824.56;4918592;28;45295;-80
2021/12/31 01:50:49;;;;;;;;;14.25;13.00;;;;;10.07;100.00;101835.28;4918332;28;45358;-81
2021/12/31 01:53:15;;;;;;;;;18.75;16.25;;;;;10.04;100.00;101838.91;4918529;28;45522;-81
2021/12/31 01:55:41;;;;;;;;;17.20;16.80;;;;;10.03;100.00;101848.69;4902575;28;44839;-81
2021/12/31 01:58:09;;;;;;;;;13.25;13.25;;;;;10.01;100.00;101855.00;4927565;28;44909;-81
2021/12/31 02:00:36;;;;;;;;;25.25;17.00;;;;;9.97;100.00;101848.97;4978987;28;44783;-81
2021/12/31 02:03:03;;;;;;;;;20.25;17.75;;;;;9.93;100.00;101852.69;4978287;28;45340;-81
2021/12/31 02:05:30;;;;;;;;;21.00;21.00;;;;;9.92;100.00;101852.78;4978829;28;44766;-81
2021/12/31 02:07:57;;;;;;;;;21.50;19.00;;;;;9.90;100.00;101857.28;4979074;28;44875;-81
2021/12/31 02:10:22;;;;;;;;;18.75;15.50;;;;;9.89;100.00;101852.91;4981936;28;45319;-81
2021/12/31 02:12:49;;;;;;;;;13.75;13.75;;;;;9.88;100.00;101848.53;4983837;28;45316;-80
2021/12/31 02:15:16;;;;;;;;;16.50;15.00;;;;;9.85;100.00;101848.69;4982186;28;45494;-81
2021/12/31 02:17:44;;;;;;;;;17.50;17.00;;;;;9.81;100.00;101847.94;4979513;28;45348;-80
2021/12/31 02:20:10;;;;;;;;;20.25;16.75;;;;;9.77;100.00;101849.91;4978569;28;45265;-80
2021/12/31 02:22:38;;;;;;;;;21.50;17.75;;;;;9.74;100.00;101839.41;4977167;28;45413;-82
2021/12/31 02:25:06;;;;;;;;;17.80;15.80;;;;;9.73;100.00;101834.19;4978353;28;45419;-80
2021/12/31 02:27:35;;;;;;;;;16.00;16.00;;;;;9.69;100.00;101836.13;4978405;28;44852;-82
2021/12/31 02:30:01;;;;;;;;;16.75;16.25;;;;;9.67;100.00;101837.09;4980750;28;45249;-83
2021/12/31 02:32:26;;;;;;;;;15.25;14.75;;;;;9.65;100.00;101828.34;4980300;28;45440;-83
2021/12/31 02:34:52;;;;;;;;;23.00;22.00;;;;;9.62;100.00;101825.84;4978546;28;45388;-81
2021/12/31 02:37:17;;;;;;;;;20.00;18.50;;;;;9.63;100.00;101827.59;4978107;28;45521;-83
2021/12/31 02:39:44;;;;;;;;;28.50;25.25;;;;;9.64;100.00;101832.81;4960440;28;45470;-83
2021/12/31 02:42:10;;;;;;;;;51.33;39.67;;;;;9.64;100.00;101831.94;4978028;28;45193;-83
2021/12/31 02:44:36;;;;;;;;;20.50;19.25;;;;;9.64;100.00;101821.34;4979419;28;45311;-83
2021/12/31 02:47:05;;;;;;;;;21.25;18.25;;;;;9.64;100.00;101818.69;4960105;28;45239;-83
2021/12/31 02:49:35;;;;;;;;;17.75;16.00;;;;;9.62;100.00;101818.75;4960461;28;45481;-82
2021/12/31 02:52:03;;;;;;;;;17.50;15.50;;;;;9.61;100.00;101805.56;4960451;28;45549;-83
2021/12/31 02:54:32;;;;;;;;;8.00;7.50;;;;;9.62;100.00;101807.25;4977601;28;45345;-83
2021/12/31 02:56:57;;;;;;;;;21.00;21.00;;;;;9.62;100.00;101808.16;4978020;28;44812;-82
2021/12/31 02:59:23;;;;;;;;;21.50;21.50;;;;;9.63;100.00;101809.00;4977787;28;44869;-82
2021/12/31 03:01:49;;;;;;;;;29.25;21.00;;;;;9.63;100.00;101798.41;4959734;28;45157;-82
2021/12/31 03:04:15;;;;;;;;;16.00;15.50;;;;;9.62;100.00;101791.34;4977701;28;45175;-83
2021/12/31 03:06:42;;;;;;;;;22.50;21.50;;;;;9.61;100.00;101789.63;4978387;28;45298;-83
2021/12/31 03:09:11;;;;;;;;;23.75;20.75;;;;;9.59;100.00;101787.06;4979186;28;44951;-82
2021/12/31 03:11:37;;;;;;;;;23.50;21.00;;;;;9.61;100.00;101794.94;4981571;28;45228;-83
2021/12/31 03:14:07;;;;;;;;;22.00;19.40;;;;;9.58;100.00;101787.13;4983642;28;45304;-83
2021/12/31 03:16:33;;;;;;;;;25.25;22.25;;;;;9.56;100.00;101781.03;4965434;28;45361;-82
2021/12/31 03:18:58;;;;;;;;;24.50;22.75;;;;;9.52;100.00;101782.94;4978098;28;45509;-83
2021/12/31 03:21:24;;;;;;;;;22.00;17.50;;;;;9.50;100.00;101785.69;4977500;28;45519;-83
2021/12/31 03:23:52;;;;;;;;;20.25;18.25;;;;;9.47;100.00;101800.88;4977713;28;44763;-81
2021/12/31 03:26:18;;;;;;;;;22.50;21.00;;;;;9.47;100.00;101807.03;4977868;28;44747;-82
2021/12/31 03:28:44;;;;;;;;;21.50;17.50;;;;;9.45;100.00;101810.69;4979977;28;44708;-82
2021/12/31 03:31:10;;;;;;;;;19.25;17.25;;;;;9.44;100.00;101811.63;4979543;28;45165;-83
2021/12/31 03:33:35;;;;;;;;;22.00;16.80;;;;;9.42;100.00;101818.78;4978601;28;45325;-82
2021/12/31 03:36:01;;;;;;;;;19.00;15.75;;;;;9.41;100.00;101841.78;4977634;28;44852;-82
2021/12/31 03:38:26;;;;;;;;;22.25;19.75;;;;;9.44;100.00;101856.72;4977359;28;45549;-83
2021/12/31 03:40:52;;;;;;;;;21.50;20.75;;;;;9.47;100.00;101869.81;4959638;28;45098;-81
2021/12/31 03:43:17;;;;;;;;;20.00;17.00;;;;;9.48;100.00;101882.19;4977367;28;44848;-82
2021/12/31 03:45:42;;;;;;;;;21.50;16.75;;;;;9.52;100.00;101881.09;4985178;28;44606;-82
2021/12/31 03:48:08;;;;;;;;;19.00;14.50;;;;;9.58;100.00;101862.28;4986432;28;45223;-82
2021/12/31 03:50:33;;;;;;;;;13.50;12.50;;;;;9.59;100.00;101845.41;4977358;28;45263;-82
2021/12/31 03:52:59;;;;;;;;;12.00;12.00;;;;;9.60;100.00;101838.31;4959166;28;45389;-82
2021/12/31 03:55:24;;;;;;;;;14.25;12.25;;;;;9.58;100.00;101818.97;4959806;28;45252;-82
2021/12/31 03:57:50;;;;;;;;;18.00;13.25;;;;;9.56;100.00;101797.78;4977321;28;44709;-82
2021/12/31 04:00:16;;;;;;;;;10.50;9.25;;;;;9.54;100.00;101794.38;4959305;28;45919;-83
2021/12/31 04:02:42;;;;;;;;;20.60;13.80;;;;;9.50;100.00;101804.25;4976744;28;45386;-82
2021/12/31 04:05:08;;;;;;;;;22.25;15.25;;;;;9.47;100.00;101803.53;4977253;28;44811;-82
2021/12/31 04:07:33;;;;;;;;;14.75;13.00;;;;;9.46;100.00;101801.81;4976795;28;44990;-82
2021/12/31 04:09:59;;;;;;;;;13.75;13.75;;;;;9.45;100.00;101792.13;4976706;28;45114;-82
2021/12/31 04:12:24;;;;;;;;;13.25;13.00;;;;;9.45;100.00;101779.72;4979709;28;44775;-82
2021/12/31 04:14:50;;;;;;;;;12.25;10.75;;;;;9.43;100.00;101778.94;4965556;28;45340;-83
2021/12/31 04:17:15;;;;;;;;;14.00;11.00;;;;;9.38;100.00;101790.66;4984287;28;45052;-82
2021/12/31 04:19:43;;;;;;;;;15.75;13.00;;;;;9.39;100.00;101797.72;4978094;28;45309;-81
2021/12/31 04:22:12;;;;;;;;;12.00;11.00;;;;;9.37;100.00;101788.94;4977427;28;45267;-83
2021/12/31 04:27:10;;;;;;;;;15.25;12.50;;;;;9.30;100.00;101792.81;4976614;28;45210;-82
2021/12/31 04:29:35;;;;;;;;;14.50;14.00;;;;;9.26;100.00;101785.00;4976230;28;45315;-82
2021/12/31 04:32:03;;;;;;;;;14.00;12.00;;;;;9.22;100.00;101782.53;4976689;28;45482;-83
2021/12/31 04:34:28;;;;;;;;;18.00;16.25;;;;;9.19;100.00;101780.06;4976609;28;45343;-82
2021/12/31 04:36:54;;;;;;;;;15.75;15.75;;;;;9.17;100.00;101779.25;4976410;28;45580;-83
2021/12/31 04:39:21;;;;;;;;;17.50;17.50;;;;;9.15;100.00;101779.31;4976594;28;45468;-79
2021/12/31 04:41:46;;;;;;;;;14.00;12.60;;;;;9.14;100.00;101780.25;4976336;28;45572;-79
2021/12/31 04:44:12;;;;;;;;;11.75;9.25;;;;;9.12;100.00;101778.59;4977361;28;44746;-81
2021/12/31 04:46:37;;;;;;;;;13.50;13.50;;;;;9.13;100.00;101764.41;4980094;28;44898;-80
2021/12/31 04:49:04;;;;;;;;;13.50;12.00;;;;;9.12;100.00;101763.53;4979925;28;45275;-81
2021/12/31 04:51:29;;;;;;;;;10.20;10.20;;;;;9.10;100.00;101749.50;4979876;28;44839;-81
2021/12/31 04:53:54;;;;;;;;;19.25;15.50;;;;;9.12;100.00;101757.38;4979729;28;45279;-81
2021/12/31 04:56:20;;;;;;;;;14.75;13.25;;;;;9.11;100.00;101764.47;4979956;28;44665;-81
2021/12/31 04:58:46;;;;;;;;;14.50;11.50;;;;;9.11;100.00;101777.72;4979037;28;45442;-80
2021/12/31 05:01:27;;;;;;;;;12.25;11.50;;;;;9.07;100.00;101784.09;5131481;27;45250;-80
2021/12/31 05:03:53;;;;;;;;;13.75;12.50;;;;;9.11;100.00;101782.16;5114009;27;45384;-80
2021/12/31 05:06:18;;;;;;;;;17.25;14.00;;;;;9.12;100.00;101783.88;5114092;27;45091;-81
2021/12/31 05:08:43;;;;;;;;;15.75;14.25;;;;;9.10;100.00;101783.09;5113992;27;44982;-80
2021/12/31 05:11:09;;;;;;;;;15.25;14.50;;;;;9.11;100.00;101779.53;5113781;27;45318;-81
2021/12/31 05:13:34;;;;;;;;;16.75;13.50;;;;;9.09;100.00;101784.91;5116216;27;45298;-81
2021/12/31 05:16:03;;;;;;;;;13.00;11.25;;;;;9.05;100.00;101788.59;5134923;27;44697;-80
2021/12/31 05:18:29;;;;;;;;;14.00;13.50;;;;;9.02;100.00;101776.34;5118380;27;45022;-79
2021/12/31 05:20:54;;;;;;;;;10.50;10.50;;;;;9.00;100.00;101777.34;5114272;27;44977;-81
2021/12/31 05:23:20;;;;;;;;;12.75;12.75;;;;;8.97;100.00;101785.41;5112924;27;44796;-80
2021/12/31 05:25:45;;;;;;;;;18.00;15.50;;;;;8.94;100.00;101772.28;5113379;27;45408;-80
2021/12/31 05:28:11;;;;;;;;;15.25;13.75;;;;;8.92;100.00;101777.66;5113806;27;45468;-80
2021/12/31 05:30:36;;;;;;;;;18.00;16.75;;;;;8.87;100.00;101771.72;5111994;27;45402;-80
2021/12/31 05:33:02;;;;;;;;;17.50;14.25;;;;;8.82;100.00;101763.09;5113552;27;44790;-80
2021/12/31 05:35:27;;;;;;;;;18.50;16.50;;;;;8.80;100.00;101764.97;5113556;27;45374;-78
2021/12/31 05:37:53;;;;;;;;;19.25;14.25;;;;;8.78;100.00;101768.59;5113489;27;45286;-80
2021/12/31 05:40:19;;;;;;;;;20.00;14.75;;;;;8.77;100.00;101759.78;5111701;27;45431;-81
2021/12/31 05:42:44;;;;;;;;;21.50;14.75;;;;;8.74;100.00;101758.13;5113603;27;45255;-82
2021/12/31 05:45:10;;;;;;;;;21.00;15.25;;;;;8.74;100.00;101758.13;5113602;27;44747;-83
2021/12/31 05:47:37;;;;;;;;;11.50;11.25;;;;;8.74;100.00;101749.31;5113684;27;44809;-83
2021/12/31 05:50:05;;;;;;;;;17.50;15.00;;;;;8.73;100.00;101751.09;5113667;27;45497;-83
2021/12/31 05:52:31;;;;;;;;;15.60;12.20;;;;;8.72;100.00;101740.56;5112772;27;45610;-82
2021/12/31 05:54:56;;;;;;;;;14.50;11.25;;;;;8.72;100.00;101743.22;5113565;27;45512;-83
2021/12/31 05:57:21;;;;;;;;;12.00;12.00;;;;;8.73;100.00;101742.28;5113749;27;45412;-82
2021/12/31 05:59:47;;;;;;;;;12.50;12.25;;;;;8.75;100.00;101727.19;5109604;27;45366;-81
2021/12/31 06:02:12;;;;;;;;;17.75;12.50;;;;;8.74;100.00;101726.31;5093402;27;45390;-82
2021/12/31 06:04:38;;;;;;;;;14.25;13.50;;;;;8.75;100.00;101736.03;5102229;27;45579;-81
2021/12/31 06:07:03;;;;;;;;;16.75;12.25;;;;;8.76;100.00;101747.47;5103236;27;44864;-80
2021/12/31 06:09:30;;;;;;;;;18.00;11.50;;;;;8.76;100.00;101752.78;5097710;27;45254;-82
2021/12/31 06:11:58;;;;;;;;;9.40;9.00;;;;;8.76;100.00;101755.41;5089870;27;45342;-82
2021/12/31 06:14:23;;;;;;;;;13.75;13.75;;;;;8.77;100.00;101757.13;5091147;28;45319;-82
2021/12/31 06:16:50;;;;;;;;;16.75;13.75;;;;;8.79;100.00;101755.28;5091990;27;44934;-83
2021/12/31 06:19:16;;;;;;;;;14.25;12.25;;;;;8.79;100.00;101760.56;5094521;27;45715;-82
2021/12/31 06:21:42;;;;;;;;;17.00;14.50;;;;;8.80;100.00;101766.72;5094410;27;44742;-82
2021/12/31 06:24:09;;;;;;;;;14.50;14.25;;;;;8.78;100.00;101771.25;5086994;27;44739;-82
2021/12/31 06:26:35;;;;;;;;;12.50;12.25;;;;;8.75;100.00;101770.47;5083746;27;44923;-82
2021/12/31 06:29:01;;;;;;;;;17.00;14.75;;;;;8.75;100.00;101764.28;5080567;27;45669;-82
2021/12/31 06:31:26;;;;;;;;;16.25;14.00;;;;;8.76;100.00;101758.06;5079069;27;45163;-82
2021/12/31 06:33:52;;;;;;;;;15.50;12.50;;;;;8.76;100.00;101763.38;5079007;27;45421;-83
2021/12/31 06:36:22;;;;;;;;;12.25;12.25;;;;;8.74;100.00;101752.81;5077982;28;44780;-83
2021/12/31 06:38:49;;;;;;;;;10.00;10.00;;;;;8.76;100.00;101758.06;5099983;27;45012;-82
2021/12/31 06:41:16;;;;;;;;;12.00;10.60;;;;;8.77;100.00;101773.03;5119315;27;44757;-83
2021/12/31 06:43:42;;;;;;;;;9.25;9.25;;;;;8.80;100.00;101764.97;5119462;27;44841;-82
2021/12/31 06:46:08;;;;;;;;;13.50;11.00;;;;;8.82;100.00;101751.63;5119384;27;45617;-82
2021/12/31 06:48:33;;;;;;;;;11.25;11.25;;;;;8.84;100.00;101747.13;5119176;27;45123;-82
2021/12/31 06:50:58;;;;;;;;;15.75;12.00;;;;;8.83;100.00;101764.81;5119498;27;45405;-82
2021/12/31 06:53:24;;;;;;;;;12.00;10.00;;;;;8.83;100.00;101762.16;5119049;27;45292;-83
2021/12/31 06:55:49;;;;;;;;;15.00;11.75;;;;;8.85;100.00;101772.69;5119100;27;45274;-82
2021/12/31 06:58:15;;;;;;;;;12.25;11.50;;;;;8.83;100.00;101783.34;5119593;27;45492;-82
2021/12/31 07:00:41;;;;;;;;;10.00;10.00;;;;;8.81;100.00;101787.88;5117642;27;45454;-83
2021/12/31 07:03:08;;;;;;;;;8.00;8.00;;;;;8.79;100.00;101781.75;5119331;27;45376;-82
2021/12/31 07:05:34;;;;;;;;;12.75;11.00;;;;;8.75;100.00;101759.84;5119305;27;45396;-82
2021/12/31 07:08:00;;;;;;;;;10.75;10.75;;;;;8.70;100.00;101737.13;5118771;27;45169;-83
2021/12/31 07:10:25;;;;;;;;;11.80;9.60;;;;;8.69;100.00;101749.50;5119358;27;45459;-83
2021/12/31 07:12:55;;;;;;;;;10.50;9.25;;;;;8.69;100.00;101778.66;5119507;27;45156;-83
2021/12/31 07:15:21;;;;;;;;;11.50;9.75;;;;;8.72;100.00;101789.13;5123276;27;44898;-82
2021/12/31 07:17:47;;;;;;;;;11.75;9.75;;;;;8.72;100.00;101794.41;5125860;27;45409;-84
2021/12/31 07:20:12;;;;;;;;;14.80;10.00;;;;;8.73;100.00;101787.34;5125250;27;44806;-82
2021/12/31 07:22:38;;;;;;;;;11.50;10.50;;;;;8.74;100.00;101787.25;5117570;27;44810;-83
2021/12/31 07:25:04;;;;;;;;;10.75;10.75;;;;;8.75;100.00;101782.81;5118877;27;44919;-82
2021/12/31 07:27:32;;;;;;;;;15.25;14.00;;;;;8.77;100.00;101780.97;5117851;27;45406;-82
2021/12/31 07:29:57;;;;;;;;;11.40;11.40;;;;;8.78;100.00;101784.50;5118607;27;45338;-83
2021/12/31 07:32:22;;;;;;;;;16.25;12.00;;;;;8.77;100.00;101796.88;5117368;27;45331;-84
2021/12/31 07:34:47;;;;;;;;;10.25;10.25;;;;;8.80;100.00;101790.56;5117425;27;44862;-84
2021/12/31 07:37:13;;;;;;;;;15.75;14.50;;;;;8.83;100.00;101793.97;5116429;27;45774;-83
2021/12/31 07:39:46;;;;;;;;;14.50;11.50;;;;;8.85;100.00;101800.06;5098688;27;45372;-82
2021/12/31 07:42:11;;;;;;;;;7.75;7.50;;;;;8.86;100.00;101799.13;5098324;27;44763;-83
2021/12/31 07:44:36;;;;;;;;;12.50;12.25;;;;;8.89;100.00;101798.13;5097885;27;45324;-84
2021/12/31 07:47:03;;;;;;;;;16.25;15.00;;;;;8.89;100.00;101795.47;5098359;27;45420;-85
2021/12/31 07:49:29;;;;;;;;;16.60;13.60;;;;;8.90;100.00;101802.53;5099205;27;45471;-82
2021/12/31 07:51:54;;;;;;;;;12.00;9.75;;;;;8.91;100.00;101781.25;5095910;27;44806;-84
2021/12/31 07:54:19;;;;;;;;;16.25;13.00;;;;;8.92;100.00;101776.81;5097741;27;45499;-84
2021/12/31 07:56:45;;;;;;;;;13.75;12.25;;;;;8.87;100.00;101779.66;5097576;27;45243;-83
2021/12/31 07:59:10;;;;;;;;;16.50;14.00;;;;;8.87;100.00;101779.66;5097030;27;45414;-83
2021/12/31 08:01:35;;;;;;;;;14.50;13.50;;;;;8.87;100.00;101798.19;5097905;27;45201;-83
2021/12/31 08:04:02;;;;;;;;;14.50;14.50;;;;;8.89;100.00;101793.69;5097367;27;45466;-84
2021/12/31 08:06:27;;;;;;;;;14.00;14.00;;;;;8.94;100.00;101789.06;5097132;27;45448;-82
2021/12/31 08:08:52;;;;;;;;;17.75;16.25;;;;;9.00;100.00;101788.81;5097513;27;44825;-83
2021/12/31 08:11:18;;;;;;;;;13.75;13.50;;;;;9.06;100.00;101781.50;5096260;27;45416;-83
2021/12/31 08:13:43;;;;;;;;;13.25;11.75;;;;;9.08;100.00;101783.16;5097557;27;44826;-83
2021/12/31 08:16:09;;;;;;;;;17.50;14.50;;;;;9.13;100.00;101798.84;5100112;27;45274;-83
2021/12/31 08:18:34;;;;;;;;;16.50;16.50;;;;;9.17;100.00;101792.50;5104703;27;45491;-83
2021/12/31 08:20:59;;;;;;;;;13.50;12.50;;;;;9.26;100.00;101797.41;5102328;27;44887;-82
2021/12/31 08:23:25;;;;;;;;;15.75;13.75;;;;;9.37;100.00;101802.22;5096905;27;44853;-83
2021/12/31 08:25:51;;;;;;;;;13.50;12.75;;;;;9.45;100.00;101808.03;5097751;27;47849;-83
2021/12/31 08:28:16;;;;;;;;;18.80;14.20;;;;;9.52;100.00;101813.00;5103979;27;45263;-83
2021/12/31 08:30:42;;;;;;;;;16.75;14.25;;;;;9.59;100.00;101826.00;5104639;27;44634;-83
2021/12/31 08:33:07;;;;;;;;;11.25;9.50;;;;;9.59;100.00;101833.94;5101755;27;44881;-83
2021/12/31 08:35:33;;;;;;;;;19.00;15.00;;;;;9.58;100.00;101830.44;5096906;27;44927;-84
2021/12/31 08:37:58;;;;;;;;;18.00;16.75;;;;;9.63;100.00;101824.94;5096965;27;44795;-84
2021/12/31 08:40:24;;;;;;;;;17.50;13.00;;;;;9.71;100.00;101807.69;5096866;27;44763;-83
2021/12/31 08:42:49;;;;;;;;;16.75;13.75;;;;;9.77;100.00;101799.47;5097137;27;45398;-84
2021/12/31 08:45:16;;;;;;;;;13.00;12.00;;;;;9.83;100.00;101813.41;5095296;27;45413;-83
2021/12/31 08:47:41;;;;;;;;;13.40;12.20;;;;;9.86;100.00;101816.75;5097177;27;44751;-84
2021/12/31 08:50:07;;;;;;;;;12.75;12.75;;;;;9.96;100.00;101814.53;5096442;27;44713;-84
2021/12/31 08:52:32;;;;;;;;;11.50;11.50;;;;;10.07;100.00;101808.72;5097077;27;44942;-85
2021/12/31 08:54:58;;;;;;;;;12.25;10.75;;;;;10.21;100.00;101808.94;5096773;27;45127;-84
2021/12/31 08:57:23;;;;;;;;;18.00;13.50;;;;;10.36;100.00;101815.31;5096636;27;44858;-84
2021/12/31 08:59:48;;;;;;;;;11.25;10.25;;;;;10.47;100.00;101808.53;5094774;27;44788;-83
2021/12/31 09:02:15;;;;;;;;;16.00;15.25;;;;;10.59;100.00;101815.06;5096673;27;44816;-83
2021/12/31 09:04:40;;;;;;;;;20.00;15.50;;;;;10.69;100.00;101805.69;5096790;27;45168;-83
2021/12/31 09:07:06;;;;;;;;;18.50;15.25;;;;;10.75;100.00;101797.41;5096604;27;45363;-84
2021/12/31 09:09:31;;;;;;;;;19.75;14.00;;;;;10.78;100.00;101783.97;5096950;27;45420;-84
2021/12/31 09:11:56;;;;;;;;;15.00;15.00;;;;;10.81;100.00;101781.13;5096911;27;44892;-84
2021/12/31 09:14:23;;;;;;;;;21.00;16.75;;;;;10.84;100.00;101793.41;5095911;27;45842;-84
2021/12/31 09:16:50;;;;;;;;;13.80;13.20;;;;;10.85;100.00;101805.75;5095848;27;45270;-84
2021/12/31 09:19:15;;;;;;;;;14.40;13.40;;;;;10.78;100.00;101820.28;5103890;27;44833;-84
2021/12/31 09:21:41;;;;;;;;;16.00;15.00;;;;;10.69;100.00;101839.38;5104583;27;45554;-84
2021/12/31 09:24:07;;;;;;;;;16.75;16.75;;;;;10.60;100.00;101848.66;5100780;27;46671;-86
2021/12/31 09:26:32;;;;;;;;;16.50;15.00;;;;;10.62;100.00;101832.63;5098688;27;45507;-84
2021/12/31 09:28:58;;;;;;;;;18.00;17.00;;;;;10.66;100.00;101820.91;5097181;27;45336;-84
2021/12/31 09:31:23;;;;;;;;;14.50;13.75;;;;;10.68;100.00;101813.72;5096861;27;45325;-84
2021/12/31 09:33:49;;;;;;;;;14.00;11.50;;;;;10.64;100.00;101834.28;5094358;27;47528;-84
2021/12/31 09:36:15;;;;;;;;;10.75;10.75;;;;;10.61;100.00;101841.53;5097957;27;45535;-83
2021/12/31 09:38:41;;;;;;;;;14.40;12.40;;;;;10.63;100.00;101848.50;5097011;27;45496;-84
2021/12/31 09:41:06;;;;;;;;;17.50;15.75;;;;;10.63;100.00;101847.63;5095651;27;45540;-84
2021/12/31 09:43:33;;;;;;;;;15.25;14.50;;;;;10.62;100.00;101827.31;5096665;27;45129;-84
2021/12/31 09:45:58;;;;;;;;;13.80;13.00;;;;;10.63;100.00;101821.06;5096275;27;45508;-82
2021/12/31 09:48:24;;;;;;;;;23.25;23.25;;;;;10.69;100.00;101826.94;5100044;27;45472;-84
2021/12/31 09:50:54;;;;;;;;;17.50;11.25;;;;;10.80;100.00;101829.06;5100380;27;44814;-84
2021/12/31 09:53:20;;;;;;;;;21.25;20.00;;;;;10.91;100.00;101847.13;5099293;27;46865;-84
2021/12/31 09:55:48;;;;;;;;;18.60;14.20;;;;;10.99;100.00;101863.56;5100969;27;44796;-83
2021/12/31 09:58:17;;;;;;;;;17.00;16.25;;;;;11.06;100.00;101859.63;5100255;27;45433;-84
2021/12/31 10:00:46;;;;;;;;;18.00;15.00;;;;;11.11;100.00;101878.00;5101036;27;45325;-84
2021/12/31 10:03:22;;;;;;;;;17.00;15.50;;;;;11.18;100.00;101887.41;5100338;27;46307;-85
2021/12/31 10:05:51;;;;;;;;;14.40;14.40;;;;;11.27;100.00;101882.50;5101570;27;44706;-84
2021/12/31 10:08:28;;;;;;;;;13.80;13.00;;;;;11.34;100.00;101896.31;5100256;27;44737;-84
2021/12/31 10:11:22;;;;;;;;;17.00;16.75;;;;;11.43;100.00;101879.88;5099854;27;45479;-84
2021/12/31 10:14:05;;;;;;;;;15.25;14.25;;;;;11.53;100.00;101885.59;5100633;27;45318;-84
2021/12/31 10:16:36;;;;;;;;;20.60;18.00;;;;;11.59;100.00;101883.44;5102762;27;45388;-85
2021/12/31 10:19:08;;;;;;;;;16.80;13.40;;;;;11.68;100.00;101881.25;5106670;27;44692;-84
2021/12/31 10:21:56;;;;;;;;;16.25;15.00;;;;;11.77;100.00;101870.13;5106024;27;45478;-84
2021/12/31 10:24:38;;;;;;;;;19.25;18.00;;;;;11.83;100.00;101868.00;5101693;27;45435;-84
2021/12/31 10:27:11;;;;;;;;;16.20;14.60;;;;;11.89;100.00;101882.78;5098019;27;45313;-84
2021/12/31 10:29:57;;;;;;;;;18.00;16.40;;;;;11.98;100.00;101886.75;5099704;27;44703;-84
2021/12/31 10:32:25;;;;;;;;;17.50;16.50;;;;;12.04;100.00;101889.09;5100282;27;45357;-84
2021/12/31 10:34:50;;;;;;;;;15.00;14.80;;;;;12.08;100.00;101875.50;5099507;27;46230;-84
2021/12/31 10:37:19;;;;;;;;;15.50;15.50;;;;;12.16;100.00;101891.09;5099508;27;44648;-84
2021/12/31 10:39:54;;;;;;;;;17.40;15.20;;;;;12.22;100.00;101898.72;5097825;27;45468;-84
2021/12/31 10:42:20;;;;;;;;;16.00;14.50;;;;;12.26;100.00;101908.28;5098685;27;45370;-84
2021/12/31 10:44:47;;;;;;;;;17.00;17.00;;;;;12.29;100.00;101921.44;5099762;27;45464;-84
2021/12/31 10:47:22;;;;;;;;;23.40;21.00;;;;;12.35;100.00;101929.09;5098005;27;44715;-84
2021/12/31 10:49:59;;;;;;;;;25.40;21.80;;;;;12.40;100.00;101942.16;5103006;27;44780;-84
2021/12/31 10:52:32;;;;;;;;;9.80;9.60;;;;;12.39;100.00;101948.44;5104890;27;44862;-84
2021/12/31 10:55:14;;;;;;;;;11.60;9.40;;;;;12.39;100.00;101948.44;5098911;27;46783;-84
2021/12/31 10:57:40;;;;;;;;;10.20;10.20;;;;;12.43;100.00;101950.00;5099715;27;44829;-85
2021/12/31 11:00:07;;;;;;;;;13.75;11.50;;;;;12.57;100.00;101946.53;5100170;27;44852;-84
2021/12/31 11:02:34;;;;;;;;;16.50;14.00;;;;;12.68;100.00;101938.81;5101352;27;45547;-85
2021/12/31 11:05:00;;;;;;;;;15.00;13.80;;;;;12.75;100.00;101928.66;5099900;27;46456;-83
2021/12/31 11:07:30;;;;;;;;;11.25;11.00;;;;;12.88;100.00;101928.81;5099946;27;45353;-84
2021/12/31 11:09:58;;;;;;;;;12.20;10.80;;;;;12.95;100.00;101914.16;5099021;27;44816;-85
2021/12/31 11:12:27;;;;;;;;;14.25;11.75;;;;;13.03;100.00;101919.94;5100818;27;45581;-85